Terminal Aerodrome Forecast
Issued by NWS Wakefield, VA

Home | Current Version | Previous Version | Text Only | Print | Product List | Glossary On
Versions: 1 2 3 4 5 6 7 8 9 10 11 12 13 14 15 16 17 18 19 20 21 22 23 24
000
FTUS41 KAKQ 250500
TAFRIC
TAF
KRIC 250529Z 2506/2606 21011KT 5SM BR SCT008 BKN025
      TEMPO 2506/2509 3SM -RA BR BKN015
     FM251000 27010KT P6SM SCT025 BKN040
     FM251300 29012G20KT P6SM SCT040 SCT100 BKN250
     FM251800 30013KT P6SM FEW050 SCT250=

USA.gov is the U.S. government's official web portal to all federal, state and local government web resources and services.